createdAt,value
2024-01-26T00:00:00.490Z,111.05
2024-01-26T00:01:00.314Z,106.35
2024-01-26T00:02:00.282Z,106.35
2024-01-26T00:03:00.278Z,105.35
2024-01-26T00:04:00.373Z,105.35
2024-01-26T00:05:00.362Z,106.10
2024-01-26T00:06:00.628Z,106.10
2024-01-26T00:07:00.650Z,106.82
2024-01-26T00:08:00.284Z,106.82
2024-01-26T00:09:08.334Z,103.02
2024-01-26T00:10:00.612Z,103.02
2024-01-26T00:11:00.255Z,105.50
2024-01-26T00:12:00.342Z,105.50
2024-01-26T00:13:00.352Z,104.31
2024-01-26T00:14:00.291Z,104.31
2024-01-26T00:15:00.360Z,104.05
2024-01-26T00:16:00.264Z,104.05
2024-01-26T00:17:00.267Z,109.25
2024-01-26T00:18:00.387Z,109.25
2024-01-26T00:19:00.233Z,110.48
2024-01-26T00:20:00.363Z,110.48
2024-01-26T00:21:00.240Z,110.14
2024-01-26T00:22:00.375Z,110.14
2024-01-26T00:23:00.267Z,110.54
2024-01-26T00:24:00.257Z,110.54
2024-01-26T00:25:00.421Z,107.51
2024-01-26T00:26:00.248Z,107.51
2024-01-26T00:27:00.238Z,109.71
2024-01-26T00:28:00.376Z,109.71
2024-01-26T00:29:00.205Z,104.31
2024-01-26T00:30:00.361Z,104.31
2024-01-26T00:31:00.883Z,100.99
2024-01-26T00:32:00.296Z,100.99
2024-01-26T00:33:00.304Z,99.37
2024-01-26T00:34:00.365Z,99.37
2024-01-26T00:35:00.314Z,98.76
2024-01-26T00:36:00.273Z,98.76
2024-01-26T00:37:00.336Z,99.55
2024-01-26T00:38:00.342Z,99.55
2024-01-26T00:39:00.181Z,99.43
2024-01-26T00:40:00.433Z,99.43
2024-01-26T00:41:00.279Z,99.26
2024-01-26T00:42:00.375Z,99.26
2024-01-26T00:43:00.343Z,96.05
2024-01-26T00:44:00.260Z,96.05
2024-01-26T00:45:00.321Z,94.72
2024-01-26T00:46:00.427Z,94.72
2024-01-26T00:47:00.243Z,97.68
2024-01-26T00:48:00.433Z,97.68
2024-01-26T00:49:00.395Z,90.76
2024-01-26T00:50:00.504Z,90.76
2024-01-26T00:51:00.252Z,88.63
2024-01-26T00:52:00.476Z,88.63
2024-01-26T00:53:00.683Z,88.19
2024-01-26T00:54:00.499Z,88.19
2024-01-26T00:55:00.316Z,89.74
2024-01-26T00:56:00.308Z,89.74
2024-01-26T00:57:00.400Z,94.74
2024-01-26T00:58:00.410Z,94.74
2024-01-26T00:59:00.188Z,90.11
2024-01-26T01:00:00.341Z,90.11
2024-01-26T01:01:00.487Z,91.80
2024-01-26T01:02:00.440Z,91.80
2024-01-26T01:03:00.334Z,93.27
2024-01-26T01:04:00.423Z,93.27
2024-01-26T01:05:01.098Z,85.87
2024-01-26T01:06:00.434Z,85.87
2024-01-26T01:07:00.260Z,90.24
2024-01-26T01:08:00.314Z,90.24
2024-01-26T01:09:00.242Z,94.30
2024-01-26T01:10:00.295Z,94.30
2024-01-26T01:11:00.315Z,88.35
2024-01-26T01:12:00.836Z,88.35
2024-01-26T01:13:00.336Z,89.35
2024-01-26T01:14:00.231Z,89.35
2024-01-26T01:15:00.360Z,90.73
2024-01-26T01:16:00.507Z,90.73
2024-01-26T01:17:00.238Z,87.28
2024-01-26T01:18:00.465Z,87.28
2024-01-26T01:19:00.559Z,85.25
2024-01-26T01:20:00.285Z,85.25
2024-01-26T01:21:00.365Z,86.66
2024-01-26T01:22:00.276Z,86.66
2024-01-26T01:23:00.288Z,87.65
2024-01-26T01:24:00.295Z,87.65
2024-01-26T01:25:00.503Z,82.45
2024-01-26T01:26:00.230Z,82.45
2024-01-26T01:27:00.337Z,80.45
2024-01-26T01:28:00.279Z,80.45
2024-01-26T01:29:00.309Z,82.96
2024-01-26T01:30:00.522Z,82.96
2024-01-26T01:31:00.844Z,80.35
2024-01-26T01:32:00.260Z,80.35
2024-01-26T01:33:00.489Z,82.97
2024-01-26T01:34:00.410Z,82.97
2024-01-26T01:35:00.852Z,83.07
2024-01-26T01:36:00.302Z,83.07
2024-01-26T01:37:00.276Z,77.89
2024-01-26T01:38:00.310Z,77.89
2024-01-26T01:39:00.276Z,80.44
2024-01-26T01:40:00.256Z,80.44
2024-01-26T01:41:00.381Z,76.30
2024-01-26T01:42:00.413Z,76.30
2024-01-26T01:43:00.699Z,79.04
2024-01-26T01:44:00.308Z,79.04
2024-01-26T01:45:00.469Z,77.74
2024-01-26T01:46:00.253Z,77.74
2024-01-26T01:47:00.268Z,79.08
2024-01-26T01:48:00.371Z,79.08
2024-01-26T01:49:00.347Z,82.51
2024-01-26T01:50:00.285Z,82.51
2024-01-26T01:51:00.845Z,88.53
2024-01-26T01:52:01.821Z,88.53
2024-01-26T01:53:03.477Z,76.82
2024-01-26T01:54:01.205Z,76.82
2024-01-26T01:55:03.220Z,78.62
2024-01-26T01:56:00.980Z,78.62
2024-01-26T01:57:02.213Z,79.96
2024-01-26T01:58:00.301Z,79.96
2024-01-26T01:59:00.229Z,84.00
2024-01-26T02:00:00.367Z,84.00
2024-01-26T02:01:00.452Z,86.24
2024-01-26T02:02:00.355Z,86.24
2024-01-26T02:03:00.427Z,85.07
2024-01-26T02:04:00.352Z,85.07
2024-01-26T02:05:00.400Z,82.02
2024-01-26T02:06:00.613Z,82.02
2024-01-26T02:07:00.874Z,87.84
2024-01-26T02:08:00.261Z,87.84
2024-01-26T02:09:00.360Z,82.73
2024-01-26T02:10:00.305Z,82.73
2024-01-26T02:11:00.259Z,85.42
2024-01-26T02:12:00.322Z,85.42
2024-01-26T02:13:00.834Z,93.95
2024-01-26T02:14:00.232Z,93.95
2024-01-26T02:15:00.363Z,91.86
2024-01-26T02:16:00.312Z,91.86
2024-01-26T02:17:01.195Z,86.61
2024-01-26T02:18:00.421Z,86.61
2024-01-26T02:19:00.425Z,83.45
2024-01-26T02:20:00.569Z,83.45
2024-01-26T02:21:00.309Z,85.15
2024-01-26T02:22:00.292Z,85.15
2024-01-26T02:23:00.213Z,89.60
2024-01-26T02:24:00.349Z,89.60
2024-01-26T02:25:00.285Z,85.84
2024-01-26T02:26:00.335Z,85.84
2024-01-26T02:27:00.355Z,85.83
2024-01-26T02:28:00.330Z,85.83
2024-01-26T02:29:00.205Z,87.29
2024-01-26T02:30:00.477Z,87.29
2024-01-26T02:31:00.236Z,86.84
2024-01-26T02:32:00.223Z,86.84
2024-01-26T02:33:00.344Z,88.86
2024-01-26T02:34:00.361Z,88.86
2024-01-26T02:35:00.449Z,88.32
2024-01-26T02:36:00.327Z,88.32
2024-01-26T02:37:00.471Z,87.03
2024-01-26T02:38:00.243Z,87.03
2024-01-26T02:39:00.543Z,89.29
2024-01-26T02:40:00.407Z,89.29
2024-01-26T02:41:00.276Z,85.60
2024-01-26T02:42:00.348Z,85.60
2024-01-26T02:43:00.244Z,84.32
2024-01-26T02:44:00.318Z,84.32
2024-01-26T02:45:00.340Z,87.05
2024-01-26T02:46:00.227Z,87.05
2024-01-26T02:47:00.444Z,88.34
2024-01-26T02:48:00.447Z,88.34
2024-01-26T02:49:00.324Z,86.95
2024-01-26T02:50:00.282Z,86.95
2024-01-26T02:51:00.354Z,85.15
2024-01-26T02:52:00.362Z,85.15
2024-01-26T02:53:00.302Z,87.04
2024-01-26T02:54:00.456Z,87.04
2024-01-26T02:55:00.263Z,89.34
2024-01-26T02:56:00.225Z,89.34
2024-01-26T02:57:00.318Z,87.75
2024-01-26T02:58:00.273Z,87.75
2024-01-26T02:59:00.255Z,89.02
2024-01-26T03:00:00.383Z,89.02
2024-01-26T03:01:00.950Z,84.07
2024-01-26T03:02:00.280Z,84.07
2024-01-26T03:03:00.643Z,88.90
2024-01-26T03:04:00.272Z,88.90
2024-01-26T03:05:00.280Z,83.47
2024-01-26T03:06:00.364Z,83.47
2024-01-26T03:07:00.386Z,83.61
2024-01-26T03:08:00.291Z,83.61
2024-01-26T03:09:00.228Z,85.05
2024-01-26T03:10:00.354Z,85.05
2024-01-26T03:11:00.261Z,83.55
2024-01-26T03:12:00.319Z,83.55
2024-01-26T03:13:00.313Z,84.80
2024-01-26T03:14:00.275Z,84.80
2024-01-26T03:15:00.729Z,86.45
2024-01-26T03:17:00.247Z,86.93
2024-01-26T03:18:00.434Z,86.93
2024-01-26T03:19:00.584Z,89.91
2024-01-26T03:20:00.409Z,89.91
2024-01-26T03:21:00.520Z,85.97
2024-01-26T03:22:00.319Z,85.97
2024-01-26T03:23:00.262Z,83.47
2024-01-26T03:24:00.420Z,83.47
2024-01-26T03:25:00.294Z,86.09
2024-01-26T03:26:00.251Z,86.09
2024-01-26T03:27:00.346Z,86.87
2024-01-26T03:28:00.263Z,86.87
2024-01-26T03:29:00.201Z,82.16
2024-01-26T03:30:00.402Z,82.16
2024-01-26T03:31:00.274Z,88.74
2024-01-26T03:32:00.317Z,88.74
2024-01-26T03:33:00.425Z,90.37
2024-01-26T03:34:00.592Z,90.37
2024-01-26T03:35:00.386Z,92.99
2024-01-26T03:36:00.354Z,92.99
2024-01-26T03:37:00.282Z,88.99
2024-01-26T03:38:00.453Z,88.99
2024-01-26T03:39:00.269Z,91.51
2024-01-26T03:40:00.249Z,91.51
2024-01-26T03:41:00.466Z,85.03
2024-01-26T03:42:00.360Z,85.03
2024-01-26T03:43:00.264Z,87.11
2024-01-26T03:44:00.332Z,87.11
2024-01-26T03:45:00.405Z,90.07
2024-01-26T03:46:02.007Z,90.07
2024-01-26T03:47:00.258Z,89.73
2024-01-26T03:48:00.400Z,89.73
2024-01-26T03:49:00.319Z,90.32
2024-01-26T03:50:00.395Z,90.32
2024-01-26T03:51:00.321Z,91.17
2024-01-26T03:52:00.272Z,91.17
2024-01-26T03:53:00.248Z,92.49
2024-01-26T03:54:00.319Z,92.49
2024-01-26T03:55:01.348Z,92.49
2024-01-26T03:56:00.255Z,92.08
2024-01-26T03:57:00.354Z,92.08
2024-01-26T03:58:00.286Z,92.53
2024-01-26T03:59:00.278Z,92.53
2024-01-26T04:00:01.253Z,91.45
2024-01-26T04:01:00.287Z,91.45
2024-01-26T04:02:00.295Z,93.33
2024-01-26T04:03:00.361Z,93.33
2024-01-26T04:04:00.291Z,93.93
2024-01-26T04:05:00.298Z,93.93
2024-01-26T04:06:00.275Z,95.24
2024-01-26T04:07:00.322Z,95.24
2024-01-26T04:08:00.262Z,96.86
2024-01-26T04:09:00.259Z,96.86
2024-01-26T04:10:00.266Z,95.32
2024-01-26T04:11:00.465Z,95.32
2024-01-26T04:12:00.336Z,95.66
2024-01-26T04:13:00.244Z,95.66
2024-01-26T04:14:00.306Z,95.23
2024-01-26T04:15:00.301Z,95.23
2024-01-26T04:16:00.222Z,95.27
2024-01-26T04:17:00.346Z,95.27
2024-01-26T04:18:00.473Z,92.26
2024-01-26T04:19:00.493Z,92.26
2024-01-26T04:20:00.434Z,96.73
2024-01-26T04:21:00.281Z,96.73
2024-01-26T04:22:00.295Z,93.85
2024-01-26T04:23:00.231Z,93.85
2024-01-26T04:24:00.393Z,93.66
2024-01-26T04:25:00.297Z,93.66
2024-01-26T04:26:00.305Z,98.02
2024-01-26T04:27:00.277Z,98.02
2024-01-26T04:28:00.346Z,98.73
2024-01-26T04:29:00.163Z,98.73
2024-01-26T04:30:00.520Z,98.59
2024-01-26T04:31:00.347Z,98.59
2024-01-26T04:32:00.324Z,100.30
2024-01-26T04:33:00.551Z,100.30
2024-01-26T04:34:00.566Z,102.76
2024-01-26T04:35:00.273Z,102.76
2024-01-26T04:36:00.315Z,105.43
2024-01-26T04:37:00.256Z,105.43
2024-01-26T04:38:00.243Z,103.94
2024-01-26T04:39:00.273Z,103.94
2024-01-26T04:40:00.284Z,103.94
2024-01-26T04:42:00.350Z,106.50
2024-01-26T04:43:00.486Z,106.50
2024-01-26T04:44:00.229Z,103.50
2024-01-26T04:45:00.367Z,103.50
2024-01-26T04:46:00.265Z,106.00
2024-01-26T04:47:00.295Z,106.00
2024-01-26T04:48:00.399Z,104.04
2024-01-26T04:49:00.420Z,104.04
2024-01-26T04:50:00.378Z,107.19
2024-01-26T04:51:00.396Z,107.19
2024-01-26T04:52:00.252Z,107.00
2024-01-26T04:53:00.284Z,107.00
2024-01-26T04:54:00.303Z,104.23
2024-01-26T04:55:00.305Z,104.23
2024-01-26T04:56:00.234Z,107.10
2024-01-26T04:57:00.284Z,107.10
2024-01-26T04:58:00.257Z,104.41
2024-01-26T04:59:00.178Z,104.41
2024-01-26T05:00:00.882Z,103.02
2024-01-26T05:01:00.297Z,103.02
2024-01-26T05:02:00.293Z,102.40
2024-01-26T05:03:00.381Z,102.40
2024-01-26T05:04:00.334Z,104.82
2024-01-26T05:05:00.256Z,104.82
2024-01-26T05:06:00.377Z,104.73
2024-01-26T05:07:00.535Z,104.73
2024-01-26T05:08:00.235Z,108.38
2024-01-26T05:09:00.259Z,108.38
2024-01-26T05:10:00.660Z,108.07
2024-01-26T05:11:00.425Z,108.07
2024-01-26T05:12:01.483Z,109.30
2024-01-26T05:13:00.235Z,109.30
2024-01-26T05:14:00.271Z,106.16
2024-01-26T05:15:01.245Z,106.16
2024-01-26T05:16:00.256Z,109.17
2024-01-26T05:17:00.265Z,109.17
2024-01-26T05:18:00.399Z,107.60
2024-01-26T05:19:00.474Z,107.60
2024-01-26T05:20:00.474Z,104.53
2024-01-26T05:21:00.678Z,104.53
2024-01-26T05:22:00.274Z,107.06
2024-01-26T05:23:01.211Z,107.06
2024-01-26T05:24:00.326Z,106.81
2024-01-26T05:25:00.403Z,106.81
2024-01-26T05:26:00.275Z,105.73
2024-01-26T05:27:00.294Z,105.73
2024-01-26T05:28:00.241Z,107.24
2024-01-26T05:29:00.194Z,107.24
2024-01-26T05:30:00.570Z,105.33
2024-01-26T05:31:00.220Z,105.33
2024-01-26T05:32:00.310Z,102.06
2024-01-26T05:33:00.414Z,102.06
2024-01-26T05:34:00.790Z,107.32
2024-01-26T05:35:00.370Z,107.32
2024-01-26T05:36:00.329Z,107.08
2024-01-26T05:37:00.239Z,107.08
2024-01-26T05:38:00.344Z,106.47
2024-01-26T05:39:00.250Z,106.47
2024-01-26T05:40:03.445Z,105.27
2024-01-26T05:41:00.397Z,105.27
2024-01-26T05:42:00.411Z,105.97
2024-01-26T05:43:00.272Z,105.97
2024-01-26T05:44:00.284Z,107.54
2024-01-26T05:45:01.544Z,107.54
2024-01-26T05:46:00.247Z,107.76
2024-01-26T05:47:00.228Z,107.76
2024-01-26T05:48:00.387Z,112.46
2024-01-26T05:49:00.380Z,112.46
2024-01-26T05:50:00.535Z,108.29
2024-01-26T05:51:00.314Z,108.29
2024-01-26T05:52:00.338Z,107.56
2024-01-26T05:53:00.285Z,107.56
2024-01-26T05:54:00.463Z,104.88
2024-01-26T05:55:00.271Z,104.88
2024-01-26T05:56:00.395Z,103.94
2024-01-26T05:57:00.389Z,103.94
2024-01-26T05:58:00.233Z,108.16
2024-01-26T05:59:00.176Z,108.16
2024-01-26T06:01:00.961Z,114.00
2024-01-26T06:02:00.255Z,114.00
2024-01-26T06:03:00.350Z,109.54
2024-01-26T06:04:00.662Z,109.54
2024-01-26T06:05:00.369Z,111.36
2024-01-26T06:06:00.473Z,111.36
2024-01-26T06:07:00.592Z,114.73
2024-01-26T06:08:00.366Z,114.73
2024-01-26T06:09:00.223Z,114.73
2024-01-26T06:10:00.286Z,114.73
2024-01-26T06:11:00.263Z,115.35
2024-01-26T06:12:00.351Z,115.35
2024-01-26T06:13:00.234Z,108.41
2024-01-26T06:14:00.256Z,108.41
2024-01-26T06:16:00.267Z,116.24
2024-01-26T06:17:00.330Z,116.24
2024-01-26T06:18:00.445Z,114.51
2024-01-26T06:19:03.552Z,114.51
2024-01-26T06:20:00.480Z,111.31
2024-01-26T06:21:00.785Z,111.31
2024-01-26T06:22:00.363Z,114.39
2024-01-26T06:23:01.000Z,114.39
2024-01-26T06:24:00.405Z,114.78
2024-01-26T06:25:00.232Z,114.78
2024-01-26T06:26:00.272Z,117.37
2024-01-26T06:27:00.364Z,117.37
2024-01-26T06:28:00.377Z,114.80
2024-01-26T06:29:00.190Z,114.80
2024-01-26T06:30:00.438Z,119.51
2024-01-26T06:31:00.235Z,119.51
2024-01-26T06:32:00.233Z,116.44
2024-01-26T06:33:00.474Z,116.44
2024-01-26T06:34:00.481Z,115.98
2024-01-26T06:35:00.441Z,115.98
2024-01-26T06:36:00.354Z,113.13
2024-01-26T06:37:00.245Z,113.13
2024-01-26T06:38:00.252Z,115.61
2024-01-26T06:39:00.287Z,115.61
2024-01-26T06:40:00.349Z,115.61
2024-01-26T06:42:00.458Z,118.04
2024-01-26T06:43:00.248Z,118.04
2024-01-26T06:44:00.250Z,122.29
2024-01-26T06:45:00.383Z,122.29
2024-01-26T06:46:00.290Z,117.29
2024-01-26T06:47:00.279Z,117.29
2024-01-26T06:48:00.791Z,117.19
2024-01-26T06:49:00.308Z,117.19
2024-01-26T06:50:00.429Z,118.24
2024-01-26T06:51:00.371Z,118.24
2024-01-26T06:52:00.252Z,117.08
2024-01-26T06:53:00.281Z,117.08
2024-01-26T06:54:00.311Z,119.70
2024-01-26T06:55:00.321Z,119.70
2024-01-26T06:56:00.485Z,115.16
2024-01-26T06:57:00.480Z,115.16
2024-01-26T06:58:00.368Z,118.94
2024-01-26T06:59:00.337Z,118.94
2024-01-26T07:00:00.556Z,127.12
2024-01-26T07:01:01.581Z,127.12
2024-01-26T07:02:00.294Z,116.74
2024-01-26T07:03:00.387Z,116.74
2024-01-26T07:04:00.499Z,119.00
2024-01-26T07:05:00.314Z,119.00
2024-01-26T07:06:00.414Z,112.62
2024-01-26T07:07:00.469Z,112.62
2024-01-26T07:08:00.256Z,112.30
2024-01-26T07:09:00.203Z,112.30
2024-01-26T07:10:00.300Z,112.95
2024-01-26T07:11:00.282Z,112.95
2024-01-26T07:12:00.332Z,109.28
2024-01-26T07:13:00.391Z,109.28
2024-01-26T07:14:00.397Z,122.32
2024-01-26T07:15:00.338Z,122.32
2024-01-26T07:16:00.228Z,116.81
2024-01-26T07:17:00.240Z,116.81
2024-01-26T07:18:00.380Z,113.00
2024-01-26T07:19:00.376Z,113.00
2024-01-26T07:20:00.340Z,116.72
2024-01-26T07:21:05.323Z,116.72
2024-01-26T07:22:00.265Z,114.83
2024-01-26T07:23:00.246Z,114.83
2024-01-26T07:24:00.338Z,117.39
2024-01-26T07:25:00.235Z,117.39
2024-01-26T07:26:00.756Z,116.83
2024-01-26T07:27:00.327Z,116.83
2024-01-26T07:28:00.262Z,120.90
2024-01-26T07:29:00.597Z,120.90
2024-01-26T07:30:02.639Z,115.62
2024-01-26T07:31:00.214Z,115.62
2024-01-26T07:33:00.456Z,117.18
2024-01-26T07:34:00.481Z,117.18
2024-01-26T07:35:00.333Z,115.14
2024-01-26T07:36:00.362Z,115.14
2024-01-26T07:37:00.276Z,121.80
2024-01-26T07:38:00.248Z,121.80
2024-01-26T07:39:00.236Z,126.49
2024-01-26T07:40:00.362Z,126.49
2024-01-26T07:41:01.284Z,132.69
2024-01-26T07:42:00.449Z,132.69
2024-01-26T07:43:00.246Z,123.26
2024-01-26T07:44:00.212Z,123.26
2024-01-26T07:45:00.358Z,138.63
2024-01-26T07:46:00.284Z,138.63
2024-01-26T07:47:00.292Z,139.13
2024-01-26T07:48:00.343Z,139.13
2024-01-26T07:49:00.283Z,137.88
2024-01-26T07:50:00.687Z,137.88
2024-01-26T07:51:00.343Z,132.82
2024-01-26T07:52:00.233Z,132.82
2024-01-26T07:53:00.230Z,140.37
2024-01-26T07:54:00.326Z,140.37
2024-01-26T07:55:00.225Z,136.55
2024-01-26T07:56:00.256Z,136.55
2024-01-26T07:57:00.292Z,131.66
2024-01-26T07:58:00.325Z,131.66
2024-01-26T07:59:00.194Z,122.56
2024-01-26T08:00:00.417Z,122.56
2024-01-26T08:01:01.012Z,124.89
2024-01-26T08:02:00.280Z,124.89
2024-01-26T08:03:00.307Z,124.02
2024-01-26T08:04:00.375Z,124.02
2024-01-26T08:05:00.390Z,128.71
2024-01-26T08:06:00.589Z,128.71
2024-01-26T08:07:00.248Z,125.33
2024-01-26T08:08:00.531Z,125.33
2024-01-26T08:09:00.220Z,121.76
2024-01-26T08:10:00.369Z,121.76
2024-01-26T08:11:00.229Z,121.45
2024-01-26T08:12:00.257Z,121.45
2024-01-26T08:13:00.430Z,125.10
2024-01-26T08:14:00.238Z,125.10
2024-01-26T08:15:00.328Z,121.47
2024-01-26T08:16:00.255Z,121.47
2024-01-26T08:17:00.269Z,119.93
2024-01-26T08:18:00.375Z,119.93
2024-01-26T08:19:00.334Z,125.23
2024-01-26T08:20:00.414Z,125.23
2024-01-26T08:21:00.468Z,124.66
2024-01-26T08:22:00.248Z,124.66
2024-01-26T08:23:00.275Z,131.87
2024-01-26T08:24:00.368Z,131.87
2024-01-26T08:25:00.292Z,130.80
2024-01-26T08:26:00.839Z,130.80
2024-01-26T08:27:00.338Z,131.71
2024-01-26T08:28:00.266Z,131.71
2024-01-26T08:29:00.233Z,133.86
2024-01-26T08:30:00.423Z,133.86
2024-01-26T08:31:00.264Z,135.18
2024-01-26T08:32:00.344Z,135.18
2024-01-26T08:34:00.583Z,131.91
2024-01-26T08:35:00.558Z,131.91
2024-01-26T08:36:00.581Z,130.85
2024-01-26T08:37:00.488Z,130.85
2024-01-26T08:38:00.288Z,135.06
2024-01-26T08:39:00.235Z,135.06
2024-01-26T08:40:00.323Z,137.72
2024-01-26T08:41:00.273Z,137.72
2024-01-26T08:42:00.394Z,138.30
2024-01-26T08:43:00.249Z,138.30
2024-01-26T08:44:00.269Z,137.09
2024-01-26T08:45:00.433Z,137.09
2024-01-26T08:46:00.344Z,135.40
2024-01-26T08:47:00.337Z,135.40
2024-01-26T08:48:00.439Z,135.74
2024-01-26T08:49:00.350Z,135.74
2024-01-26T08:50:00.397Z,139.86
2024-01-26T08:51:00.839Z,139.86
2024-01-26T08:52:00.270Z,143.34
2024-01-26T08:53:00.264Z,143.34
2024-01-26T08:54:00.446Z,144.58
2024-01-26T08:55:00.301Z,144.58
2024-01-26T08:56:02.675Z,143.69
2024-01-26T08:57:00.379Z,143.69
2024-01-26T08:58:00.313Z,146.09
2024-01-26T08:59:01.286Z,146.09
2024-01-26T09:00:00.370Z,146.41
2024-01-26T09:01:00.417Z,146.41
2024-01-26T09:02:00.310Z,148.47
2024-01-26T09:03:00.275Z,148.47
2024-01-26T09:04:00.643Z,151.41
2024-01-26T09:05:02.997Z,151.41
2024-01-26T09:06:00.481Z,150.66
2024-01-26T09:07:07.869Z,150.66
2024-01-26T09:08:00.310Z,151.65
2024-01-26T09:09:00.611Z,151.65
2024-01-26T09:10:00.535Z,153.54
2024-01-26T09:11:00.274Z,153.54
2024-01-26T09:12:00.359Z,150.87
2024-01-26T09:13:00.300Z,150.87
2024-01-26T09:14:00.366Z,149.72
2024-01-26T09:15:00.484Z,149.72
2024-01-26T09:16:00.262Z,149.98
2024-01-26T09:17:00.259Z,149.98
2024-01-26T09:18:00.463Z,151.02
2024-01-26T09:19:02.243Z,151.02
2024-01-26T09:20:00.559Z,150.99
2024-01-26T09:21:01.702Z,150.99
2024-01-26T09:22:00.240Z,150.56
2024-01-26T09:23:00.285Z,150.56
2024-01-26T09:24:00.313Z,155.93
2024-01-26T09:25:00.308Z,155.93
2024-01-26T09:26:00.321Z,151.13
2024-01-26T09:27:00.721Z,151.13
2024-01-26T09:28:00.342Z,152.24
2024-01-26T09:29:00.658Z,152.24
2024-01-26T09:30:00.389Z,152.15
2024-01-26T09:31:00.258Z,152.15
2024-01-26T09:32:00.386Z,155.39
2024-01-26T09:33:00.508Z,155.39
2024-01-26T09:34:00.445Z,149.39
2024-01-26T09:35:01.541Z,149.39
2024-01-26T09:36:00.449Z,154.86
2024-01-26T09:37:00.252Z,154.86
2024-01-26T09:38:00.238Z,152.63
2024-01-26T09:39:00.250Z,152.63
2024-01-26T09:40:00.415Z,153.19
2024-01-26T09:41:02.029Z,153.19
2024-01-26T09:43:00.244Z,159.42
2024-01-26T09:44:00.347Z,156.06
2024-01-26T09:46:00.238Z,152.07
2024-01-26T09:47:02.074Z,152.07
2024-01-26T09:48:03.957Z,156.41
2024-01-26T09:49:01.102Z,156.41
2024-01-26T09:51:00.775Z,159.98
2024-01-26T09:52:00.698Z,159.98
2024-01-26T09:53:00.980Z,156.58
2024-01-26T09:54:00.771Z,156.58
2024-01-26T09:55:01.172Z,154.96
2024-01-26T09:56:00.440Z,154.96
2024-01-26T09:57:00.515Z,158.32
2024-01-26T09:58:00.333Z,158.32
2024-01-26T09:59:00.175Z,151.98
2024-01-26T10:00:00.409Z,151.98
2024-01-26T10:01:00.670Z,153.83
2024-01-26T10:02:00.621Z,153.83
2024-01-26T10:04:01.006Z,160.44
2024-01-26T10:05:00.259Z,160.44
2024-01-26T10:06:00.713Z,152.85
2024-01-26T10:07:00.365Z,152.85
2024-01-26T10:09:00.233Z,145.91
2024-01-26T10:10:00.314Z,145.91
2024-01-26T10:11:00.265Z,144.33
2024-01-26T10:12:00.416Z,144.33
2024-01-26T10:13:00.270Z,148.38
2024-01-26T10:14:00.264Z,148.38
2024-01-26T10:15:02.025Z,144.01
2024-01-26T10:16:04.011Z,144.01
2024-01-26T10:40:01.099Z,129.48
2024-01-26T10:41:01.069Z,129.48
2024-01-26T10:45:01.294Z,145.83
2024-01-26T10:48:00.699Z,116.41
2024-01-26T10:49:00.722Z,116.41
2024-01-26T10:50:00.431Z,116.41
2024-01-26T10:51:01.193Z,116.39
2024-01-26T10:52:00.858Z,116.39
2024-01-26T10:53:01.703Z,116.39
2024-01-26T10:54:00.338Z,115.03
2024-01-26T10:55:00.454Z,115.03
2024-01-26T10:56:00.978Z,115.03
2024-01-26T10:57:00.386Z,113.29
2024-01-26T10:58:01.337Z,113.29
2024-01-26T10:59:00.420Z,113.29
2024-01-26T11:00:00.736Z,120.00
2024-01-26T11:01:00.435Z,120.00
2024-01-26T11:02:00.412Z,120.00
2024-01-26T11:03:00.524Z,118.06
2024-01-26T11:04:00.402Z,118.06
2024-01-26T11:05:01.019Z,118.06
2024-01-26T11:06:00.602Z,122.33
2024-01-26T11:07:00.666Z,122.33
2024-01-26T11:08:02.039Z,122.33
2024-01-26T11:09:07.772Z,127.62
2024-01-26T11:10:02.757Z,127.62
2024-01-26T11:11:00.328Z,127.62
2024-01-26T11:12:01.647Z,125.15
2024-01-26T11:13:00.779Z,125.15
2024-01-26T11:14:00.590Z,125.15
2024-01-26T11:15:07.359Z,129.61
2024-01-26T11:16:04.022Z,129.61
2024-01-26T11:17:08.173Z,129.61
2024-01-26T11:18:00.667Z,135.81
2024-01-26T11:19:00.773Z,135.81
2024-01-26T11:20:00.451Z,135.81
2024-01-26T11:21:03.798Z,132.54
2024-01-26T11:22:02.334Z,132.54
2024-01-26T11:23:01.277Z,132.54
2024-01-26T11:24:09.451Z,126.23
2024-01-26T11:25:00.243Z,126.23
2024-01-26T11:29:09.259Z,136.71
2024-01-26T11:30:00.393Z,136.71
2024-01-26T11:31:00.299Z,136.71
2024-01-26T11:32:01.071Z,133.69
2024-01-26T11:33:00.805Z,133.69
2024-01-26T11:34:00.451Z,133.69
2024-01-26T11:35:00.668Z,129.56
2024-01-26T11:36:02.436Z,129.56
2024-01-26T11:37:17.462Z,125.66
2024-01-26T11:38:00.769Z,125.66
2024-01-26T11:39:00.320Z,125.66
2024-01-26T11:40:00.545Z,125.66
2024-01-26T11:41:01.192Z,120.37
2024-01-26T11:42:00.351Z,120.37
2024-01-26T11:43:00.276Z,120.37
2024-01-26T11:44:04.651Z,126.63
2024-01-26T11:45:06.664Z,126.63
2024-01-26T11:46:00.300Z,126.63
2024-01-26T11:47:02.162Z,127.08
2024-01-26T11:48:00.390Z,127.08
2024-01-26T11:49:00.497Z,127.08
2024-01-26T11:50:00.316Z,128.08
2024-01-26T11:51:00.355Z,128.08
2024-01-26T11:52:00.269Z,128.08
2024-01-26T11:53:00.340Z,128.87
2024-01-26T11:54:00.377Z,128.87
2024-01-26T11:55:01.020Z,128.87
2024-01-26T11:56:00.257Z,125.26
2024-01-26T11:57:00.393Z,125.26
2024-01-26T11:58:00.373Z,125.26
2024-01-26T11:59:00.189Z,121.91
2024-01-26T12:00:00.394Z,121.91
2024-01-26T12:01:00.872Z,121.91
2024-01-26T12:02:00.268Z,127.77
2024-01-26T12:05:00.430Z,128.73
2024-01-26T12:06:00.407Z,128.73
2024-01-26T12:07:01.015Z,128.73
2024-01-26T12:08:00.637Z,126.99
2024-01-26T12:09:00.337Z,126.99
2024-01-26T12:10:00.609Z,126.99
2024-01-26T12:11:00.338Z,134.05
2024-01-26T12:12:00.481Z,134.05
2024-01-26T12:13:00.578Z,134.05
2024-01-26T12:14:00.549Z,132.97
2024-01-26T12:15:00.336Z,132.97
2024-01-26T12:16:00.453Z,132.97
2024-01-26T12:17:01.513Z,133.64
2024-01-26T12:18:00.458Z,133.64
2024-01-26T12:19:00.396Z,133.64
2024-01-26T12:20:00.496Z,133.32
2024-01-26T12:21:00.720Z,133.32
2024-01-26T12:22:00.235Z,133.32
2024-01-26T12:23:00.248Z,135.80
2024-01-26T12:24:00.318Z,135.80
2024-01-26T12:25:00.799Z,135.80
2024-01-26T12:26:00.254Z,142.53
2024-01-26T12:27:00.849Z,142.53
2024-01-26T12:28:00.263Z,142.53
2024-01-26T12:29:00.213Z,141.58
2024-01-26T12:30:00.531Z,141.58
2024-01-26T12:31:00.408Z,141.58
2024-01-26T12:32:08.485Z,144.91
2024-01-26T12:33:04.722Z,144.91
2024-01-26T12:34:00.605Z,144.91
2024-01-26T12:35:00.437Z,145.14
2024-01-26T12:36:00.295Z,145.14
2024-01-26T12:37:00.329Z,145.14
2024-01-26T12:38:00.297Z,142.19
2024-01-26T12:39:00.465Z,142.19
2024-01-26T12:40:00.274Z,142.19
2024-01-26T12:41:00.438Z,140.26
2024-01-26T12:42:00.410Z,140.26
2024-01-26T12:43:00.241Z,140.26
2024-01-26T12:44:01.014Z,141.07
2024-01-26T12:45:00.347Z,141.07
2024-01-26T12:46:00.246Z,141.07
2024-01-26T12:47:00.322Z,143.91
2024-01-26T12:48:00.370Z,143.91
2024-01-26T12:49:00.312Z,143.91
2024-01-26T12:50:00.446Z,142.06
2024-01-26T12:51:00.302Z,142.06
2024-01-26T12:52:00.801Z,142.06
2024-01-26T12:53:00.311Z,136.52
2024-01-26T12:54:00.306Z,136.52
2024-01-26T12:55:00.263Z,136.52
2024-01-26T12:56:00.293Z,138.71
2024-01-26T12:57:00.297Z,138.71
2024-01-26T12:58:00.282Z,138.71
2024-01-26T12:59:00.186Z,142.39
2024-01-26T13:00:00.459Z,142.39
2024-01-26T13:01:00.593Z,142.39
2024-01-26T13:02:00.303Z,142.16
2024-01-26T13:03:00.511Z,142.16
2024-01-26T13:04:00.360Z,142.16
2024-01-26T13:05:00.397Z,143.54
2024-01-26T13:06:00.433Z,143.54
2024-01-26T13:07:00.401Z,143.54
2024-01-26T13:08:00.349Z,142.59
2024-01-26T13:09:00.561Z,142.59
2024-01-26T13:10:00.297Z,142.59
2024-01-26T13:11:00.257Z,140.54
2024-01-26T13:12:01.840Z,140.54
2024-01-26T13:13:00.267Z,140.54
2024-01-26T13:14:01.576Z,147.01
2024-01-26T13:15:00.400Z,147.01
2024-01-26T13:16:00.268Z,147.01
2024-01-26T13:17:00.374Z,140.71
2024-01-26T13:18:00.716Z,140.71
2024-01-26T13:19:00.310Z,140.71
2024-01-26T13:20:08.295Z,137.86